Time;durP1;ratioP1;P1;durP2;ratioP2;P2;SDS_P1;SDS_P2;PMS_P1;PMS_P2;Temp;Humidity;BMP_temperature;BMP_pressure;BME280_temperature;BME280_humidity;BME280_pressure;Samples;Min_cycle;Max_cycle;Signal;HPM_P1;HPM_P2
2022/09/14 00:00:40;;;;;;;;;13.20;10.40;;;;;24.94;62.69;99989.44;2100780;28;48125;-63
2022/09/14 00:01:45;;;;;;;;;9.40;9.40;;;;;24.95;63.27;99990.31;2098242;28;47559;-63
2022/09/14 00:02:46;;;;;;;;;8.00;8.00;;;;;24.95;63.17;99993.03;2084514;28;48140;-64
2022/09/14 00:03:51;;;;;;;;;9.20;9.20;;;;;24.94;62.92;99992.16;2082063;28;48057;-63
2022/09/14 00:04:51;;;;;;;;;7.60;7.00;;;;;24.95;63.05;99984.88;2101641;28;48067;-64
2022/09/14 00:05:52;;;;;;;;;8.25;8.00;;;;;24.97;62.38;99993.72;2102829;28;47300;-63
2022/09/14 00:06:52;;;;;;;;;7.75;7.75;;;;;24.97;62.94;99992.88;2104666;27;47490;-63
2022/09/14 00:07:52;;;;;;;;;10.25;10.25;;;;;24.97;62.50;99984.72;2101062;28;47845;-63
2022/09/14 00:08:55;;;;;;;;;9.00;9.00;;;;;24.97;62.43;99982.88;2103799;28;47517;-63
2022/09/14 00:09:55;;;;;;;;;8.60;7.20;;;;;24.98;62.87;99989.16;2104599;28;47454;-63
2022/09/14 00:10:55;;;;;;;;;16.25;16.00;;;;;24.98;62.75;99983.72;2103342;27;47596;-63
2022/09/14 00:11:56;;;;;;;;;13.50;12.25;;;;;24.99;62.37;99980.00;2105587;28;47703;-63
2022/09/14 00:12:57;;;;;;;;;9.75;8.50;;;;;24.98;62.43;99978.31;2104274;27;47697;-62
2022/09/14 00:13:58;;;;;;;;;9.60;9.60;;;;;24.98;62.22;99978.31;2105734;27;47514;-63
2022/09/14 00:14:59;;;;;;;;;12.60;11.00;;;;;24.96;61.98;99978.44;2104146;27;47662;-63
2022/09/14 00:16:09;;;;;;;;;8.00;7.50;;;;;24.96;62.00;99975.72;2106037;28;48024;-63
2022/09/14 00:17:09;;;;;;;;;8.20;8.20;;;;;24.95;61.94;99979.44;2103670;28;47750;-63
2022/09/14 00:18:10;;;;;;;;;7.50;7.50;;;;;24.94;61.81;99981.31;2098772;27;47218;-63
2022/09/14 00:19:22;;;;;;;;;13.25;13.25;;;;;24.94;62.36;99975.03;2104520;28;47432;-63
2022/09/14 00:20:23;;;;;;;;;6.20;6.20;;;;;24.94;62.22;99966.88;2104352;28;48009;-64
2022/09/14 00:21:23;;;;;;;;;5.75;5.75;;;;;24.91;62.20;99967.19;2102347;28;47689;-62
2022/09/14 00:22:24;;;;;;;;;6.25;6.25;;;;;24.91;61.86;99962.59;2101626;27;47364;-63
2022/09/14 00:23:24;;;;;;;;;5.75;5.75;;;;;24.91;61.79;99962.59;2103105;28;46091;-62
2022/09/14 00:24:28;;;;;;;;;5.33;5.33;;;;;24.90;62.24;99960.91;2103166;27;45860;-63
2022/09/14 00:25:29;;;;;;;;;6.00;6.00;;;;;24.89;61.48;99961.88;2105450;28;47444;-63
2022/09/14 00:26:30;;;;;;;;;5.50;5.50;;;;;24.89;62.28;99961.00;2104132;28;47808;-62
2022/09/14 00:27:30;;;;;;;;;5.00;5.00;;;;;24.89;61.58;99959.16;2103858;28;47441;-64
2022/09/14 00:28:39;;;;;;;;;2.00;2.00;;;;;24.88;62.19;99952.00;2104310;28;47793;-63
2022/09/14 00:29:39;;;;;;;;;6.40;5.00;;;;;24.87;61.72;99950.28;2104567;28;47831;-63
2022/09/14 00:30:42;;;;;;;;;8.50;8.50;;;;;24.86;61.71;99951.31;2095348;28;47454;-63
2022/09/14 00:31:44;;;;;;;;;5.60;5.60;;;;;24.85;61.45;99949.59;2087955;28;47500;-62
2022/09/14 00:32:44;;;;;;;;;6.60;5.40;;;;;24.85;62.03;99948.72;2089655;28;47344;-63
2022/09/14 00:33:46;;;;;;;;;8.25;8.25;;;;;24.86;61.67;99945.00;2104502;28;47648;-62
2022/09/14 00:34:46;;;;;;;;;5.80;5.40;;;;;24.84;61.88;99937.03;2104164;27;48040;-63
2022/09/14 00:35:47;;;;;;;;;5.50;5.50;;;;;24.86;61.82;99940.44;2103061;28;47977;-63
2022/09/14 00:36:49;;;;;;;;;4.00;4.00;;;;;24.87;61.59;99944.00;2104253;27;47644;-62
2022/09/14 00:37:50;;;;;;;;;5.40;5.40;;;;;24.86;61.57;99947.72;2105320;28;47737;-62
2022/09/14 00:38:52;;;;;;;;;7.60;6.20;;;;;24.85;61.97;99936.03;2103894;28;47602;-63
2022/09/14 00:39:53;;;;;;;;;5.60;5.60;;;;;24.85;61.50;99935.16;2103066;28;48061;-64
2022/09/14 00:41:01;;;;;;;;;5.00;3.60;;;;;24.84;61.99;99928.88;2103023;27;47698;-63
2022/09/14 00:42:03;;;;;;;;;6.00;5.20;;;;;24.82;62.13;99922.75;2105701;28;47831;-63
2022/09/14 00:43:13;;;;;;;;;7.40;6.80;;;;;24.83;61.79;99927.16;2102616;28;47719;-64
2022/09/14 00:44:14;;;;;;;;;7.80;6.60;;;;;24.82;62.06;99930.88;2104386;27;47585;-63
2022/09/14 00:45:18;;;;;;;;;5.75;5.75;;;;;24.82;61.70;99930.03;2100577;28;47062;-62
2022/09/14 00:46:18;;;;;;;;;7.00;6.20;;;;;24.80;62.18;99924.75;2088647;28;47597;-63
2022/09/14 00:47:19;;;;;;;;;7.50;7.50;;;;;24.80;62.13;99921.19;2086714;28;47285;-64
2022/09/14 00:48:23;;;;;;;;;9.20;7.60;;;;;24.79;61.79;99923.03;2080763;28;47301;-62
2022/09/14 00:49:34;;;;;;;;;7.00;7.00;;;;;24.78;61.75;99917.75;2092475;27;48055;-63
2022/09/14 00:50:35;;;;;;;;;7.40;7.00;;;;;24.79;62.18;99914.03;2102094;27;47835;-63
2022/09/14 00:51:48;;;;;;;;;7.00;7.00;;;;;24.80;62.43;99911.19;2103064;28;47745;-63
2022/09/14 00:52:49;;;;;;;;;7.80;6.60;;;;;24.79;62.33;99912.19;2103820;28;48076;-63
2022/09/14 00:53:50;;;;;;;;;7.00;7.00;;;;;24.79;62.51;99905.91;2104188;28;48125;-62
2022/09/14 00:54:55;;;;;;;;;6.00;6.00;;;;;24.77;62.28;99903.31;2104089;27;47529;-63
2022/09/14 00:55:55;;;;;;;;;7.00;6.00;;;;;24.78;62.24;99898.75;2097612;28;48035;-63
2022/09/14 00:57:01;;;;;;;;;7.75;6.00;;;;;24.78;62.43;99906.91;2092996;28;46459;-64
2022/09/14 00:58:01;;;;;;;;;7.25;6.25;;;;;24.77;62.47;99903.31;2096854;28;47871;-64
2022/09/14 00:59:09;;;;;;;;;5.25;5.00;;;;;24.78;61.88;99904.19;2103080;27;47189;-64
2022/09/14 01:00:12;;;;;;;;;6.00;5.00;;;;;24.78;62.37;99901.47;2105465;27;48213;-64
2022/09/14 01:01:13;;;;;;;;;8.00;7.00;;;;;24.78;62.39;99902.34;2103736;27;47540;-63
2022/09/14 01:02:15;;;;;;;;;4.75;4.75;;;;;24.79;62.53;99895.03;2099796;27;47586;-62
2022/09/14 01:03:16;;;;;;;;;6.25;5.25;;;;;24.81;62.56;99893.03;2101786;27;47817;-63
2022/09/14 01:04:16;;;;;;;;;7.00;7.00;;;;;24.81;62.06;99893.03;2104160;27;47937;-63
2022/09/14 01:05:18;;;;;;;;;8.00;8.00;;;;;24.81;62.38;99891.19;2100844;27;47614;-62
2022/09/14 01:06:39;;;;;;;;;6.50;6.50;;;;;24.83;62.28;99888.31;2104026;27;45798;-64
2022/09/14 01:07:48;;;;;;;;;9.00;8.00;;;;;24.82;62.13;99887.47;2099703;27;47857;-63
2022/09/14 01:08:56;;;;;;;;;6.50;6.25;;;;;24.82;62.00;99890.19;2098645;27;47673;-63
2022/09/14 01:10:05;;;;;;;;;6.50;6.50;;;;;24.84;62.47;99884.59;2104406;28;47500;-63
2022/09/14 01:11:06;;;;;;;;;7.40;6.00;;;;;24.84;62.51;99877.31;2101238;27;47415;-63
2022/09/14 01:12:45;;;;;;;;;7.75;7.75;;;;;24.84;62.32;99876.47;2105083;28;47488;-64
2022/09/14 01:14:18;;;;;;;;;5.40;4.80;;;;;24.86;62.33;99877.16;2097718;28;47449;-63
2022/09/14 01:15:30;;;;;;;;;4.75;4.75;;;;;24.86;62.21;99874.44;2070249;28;47553;-63
2022/09/14 01:16:57;;;;;;;;;5.80;5.80;;;;;24.86;62.31;99869.03;2069074;28;48957;-63
2022/09/14 01:18:07;;;;;;;;;6.00;5.75;;;;;24.84;62.51;99869.19;2070904;28;47713;-63
2022/09/14 01:19:32;;;;;;;;;1.00;1.00;;;;;24.85;62.22;99872.75;2070183;28;47873;-63
2022/09/14 01:20:35;;;;;;;;;6.75;6.25;;;;;24.84;62.03;99868.31;2065025;28;47999;-63
2022/09/14 01:21:41;;;;;;;;;4.75;4.75;;;;;24.84;62.59;99868.31;2070865;28;47858;-61
2022/09/14 01:22:41;;;;;;;;;5.40;5.40;;;;;24.83;62.14;99862.03;2067312;28;47544;-62
2022/09/14 01:23:53;;;;;;;;;7.00;7.00;;;;;24.83;61.98;99866.63;2070845;28;47436;-62
2022/09/14 01:25:08;;;;;;;;;5.00;5.00;;;;;24.82;62.50;99865.75;2068474;28;46583;-63
2022/09/14 01:26:30;;;;;;;;;7.25;6.00;;;;;24.83;61.80;99867.47;2067009;28;47880;-63
2022/09/14 01:27:40;;;;;;;;;6.25;6.25;;;;;24.82;62.00;99871.19;2068377;28;47484;-62
2022/09/14 01:29:16;;;;;;;;;6.25;6.25;;;;;24.82;62.30;99870.31;2069573;28;47505;-63
2022/09/14 01:30:21;;;;;;;;;6.00;6.00;;;;;24.80;62.19;99861.47;2037845;28;47128;-64
2022/09/14 01:31:33;;;;;;;;;4.75;4.25;;;;;24.78;62.41;99858.91;2038189;28;47977;-63
2022/09/14 01:32:40;;;;;;;;;8.25;8.25;;;;;24.78;62.69;99863.50;2037433;28;48117;-63
2022/09/14 01:33:52;;;;;;;;;5.00;5.00;;;;;24.79;62.55;99859.78;2037657;28;47172;-63
2022/09/14 01:35:02;;;;;;;;;6.00;5.00;;;;;24.78;62.49;99864.34;2038228;28;48089;-63
2022/09/14 01:36:07;;;;;;;;;5.00;4.75;;;;;24.78;62.82;99861.63;2044332;28;47294;-63
2022/09/14 01:37:13;;;;;;;;;5.00;5.00;;;;;24.78;62.32;99858.91;2044033;28;48044;-62
2022/09/14 01:38:23;;;;;;;;;7.00;7.00;;;;;24.77;63.03;99862.59;2033828;28;47698;-62
2022/09/14 01:39:27;;;;;;;;;4.25;4.25;;;;;24.77;63.26;99864.47;2037712;28;48045;-63
2022/09/14 01:40:48;;;;;;;;;3.80;3.80;;;;;24.76;62.85;99868.19;2037394;28;48183;-63
2022/09/14 01:41:52;;;;;;;;;7.40;5.80;;;;;24.75;63.45;99861.03;2038020;28;47567;-64
2022/09/14 01:43:02;;;;;;;;;6.60;6.60;;;;;24.74;63.11;99862.91;2038394;28;47656;-63
2022/09/14 01:44:19;;;;;;;;;7.40;6.20;;;;;24.73;63.07;99866.63;2038766;28;47664;-63
2022/09/14 01:45:22;;;;;;;;;7.00;6.00;;;;;24.72;63.29;99866.75;2037371;28;47774;-64
2022/09/14 01:46:30;;;;;;;;;6.75;6.75;;;;;24.71;63.52;99870.47;2034622;28;47621;-64
2022/09/14 01:47:44;;;;;;;;;7.25;7.25;;;;;24.71;62.96;99867.75;2034083;28;47942;-63
2022/09/14 01:48:53;;;;;;;;;6.00;6.00;;;;;24.71;62.75;99870.47;2033719;28;48009;-63
2022/09/14 01:50:12;;;;;;;;;8.75;6.75;;;;;24.71;62.91;99867.75;2036714;28;47985;-63
2022/09/14 01:51:19;;;;;;;;;8.60;7.40;;;;;24.70;63.13;99872.34;2037308;28;47799;-63
2022/09/14 01:52:29;;;;;;;;;7.40;7.40;;;;;24.71;63.61;99865.06;2038671;28;46198;-62
2022/09/14 01:53:33;;;;;;;;;5.75;5.75;;;;;24.71;63.21;99862.34;2065898;28;47261;-63
2022/09/14 01:54:40;;;;;;;;;8.00;7.20;;;;;24.71;63.45;99863.19;2069388;28;47807;-63
2022/09/14 01:55:47;;;;;;;;;6.60;6.00;;;;;24.71;63.33;99862.34;2064659;28;47508;-64
2022/09/14 01:56:55;;;;;;;;;6.00;5.75;;;;;24.70;63.13;99872.34;2069313;28;48287;-64
2022/09/14 01:58:09;;;;;;;;;8.00;8.00;;;;;24.68;63.31;99865.34;2063913;28;47777;-63
2022/09/14 01:59:15;;;;;;;;;5.00;5.00;;;;;24.67;63.75;99878.06;2069629;28;47364;-63
2022/09/14 02:00:21;;;;;;;;;9.80;9.20;;;;;24.64;63.82;99879.19;2068124;28;47320;-62
2022/09/14 02:01:43;;;;;;;;;7.20;5.00;;;;;24.64;63.68;99881.88;2069226;28;45685;-63
2022/09/14 02:02:52;;;;;;;;;6.80;6.80;;;;;24.62;63.79;99870.31;2065763;28;47437;-63
2022/09/14 02:03:58;;;;;;;;;6.20;6.20;;;;;24.61;63.85;99873.19;2070963;28;47568;-63
2022/09/14 02:05:07;;;;;;;;;6.80;6.80;;;;;24.60;63.79;99866.91;2066493;28;47889;-63
2022/09/14 02:06:18;;;;;;;;;5.00;5.00;;;;;24.60;63.84;99866.06;2079153;28;47773;-63
2022/09/14 02:07:19;;;;;;;;;7.40;7.40;;;;;24.58;63.84;99866.19;2087766;27;47385;-63
2022/09/14 02:08:20;;;;;;;;;6.25;6.25;;;;;24.59;63.59;99858.91;2102902;27;47316;-62
2022/09/14 02:09:25;;;;;;;;;7.00;6.67;;;;;24.60;63.88;99860.63;2093051;28;47199;-62
2022/09/14 02:10:26;;;;;;;;;4.40;4.40;;;;;24.60;63.98;99864.19;2094496;28;47542;-63
2022/09/14 02:11:26;;;;;;;;;6.25;6.25;;;;;24.60;64.14;99853.34;2104046;27;47095;-63
2022/09/14 02:12:27;;;;;;;;;6.00;6.00;;;;;24.59;63.95;99853.50;2102935;27;47613;-63
2022/09/14 02:13:28;;;;;;;;;7.00;7.00;;;;;24.58;64.07;99854.50;2098692;27;48310;-63
2022/09/14 02:14:29;;;;;;;;;7.00;7.00;;;;;24.57;63.84;99855.50;2099006;27;47505;-63
2022/09/14 02:15:30;;;;;;;;;7.00;7.00;;;;;24.56;63.80;99856.50;2102288;28;47577;-63
2022/09/14 02:16:30;;;;;;;;;5.00;5.00;;;;;24.54;63.79;99853.09;2102420;27;46867;-62
2022/09/14 02:17:31;;;;;;;;;8.67;6.00;;;;;24.52;63.73;99849.63;2104319;27;47683;-63
2022/09/14 02:18:31;;;;;;;;;7.50;7.50;;;;;24.51;63.79;99851.47;2103656;28;47494;-63
2022/09/14 02:19:39;;;;;;;;;5.33;5.33;;;;;24.51;64.10;99848.78;2103737;27;47108;-62
2022/09/14 02:21:15;;;;;;;;;5.00;5.00;;;;;24.50;64.13;99846.22;2103302;27;47326;-62
2022/09/14 02:22:15;;;;;;;;;5.50;5.50;;;;;24.50;64.31;99860.63;2098425;27;47990;-64
2022/09/14 02:23:16;;;;;;;;;8.33;7.00;;;;;24.48;64.26;99851.78;2100407;27;47790;-64
2022/09/14 02:24:17;;;;;;;;;8.00;8.00;;;;;24.49;64.00;99861.63;2102667;27;47757;-63
2022/09/14 02:25:19;;;;;;;;;7.00;7.00;;;;;24.48;64.32;99854.50;2103769;28;47507;-63
2022/09/14 02:26:21;;;;;;;;;7.75;6.25;;;;;24.49;64.26;99849.91;2106198;27;47852;-64
2022/09/14 02:27:23;;;;;;;;;6.00;6.00;;;;;24.48;63.66;99859.91;2104095;27;47147;-63
2022/09/14 02:28:23;;;;;;;;;6.00;6.00;;;;;24.48;63.83;99859.91;2103159;27;47646;-63
2022/09/14 02:29:23;;;;;;;;;8.00;6.00;;;;;24.47;64.07;99865.50;2101697;27;47367;-62
2022/09/14 02:30:26;;;;;;;;;6.67;6.00;;;;;24.45;63.94;99870.19;2093358;28;47051;-63
2022/09/14 02:32:08;;;;;;;;;7.00;7.00;;;;;24.44;63.88;99871.19;2099960;28;47810;-63
2022/09/14 02:33:24;;;;;;;;;6.00;6.00;;;;;24.42;63.95;99865.94;2069111;28;47447;-64
2022/09/14 02:34:40;;;;;;;;;5.50;5.50;;;;;24.42;64.11;99870.50;2068012;28;47654;-63
2022/09/14 02:35:47;;;;;;;;;7.00;5.50;;;;;24.40;63.71;99876.06;2071668;28;47604;-63
2022/09/14 02:37:04;;;;;;;;;7.00;7.00;;;;;24.39;64.06;99874.31;2069334;28;47779;-63
2022/09/14 02:38:12;;;;;;;;;5.25;5.25;;;;;24.39;64.45;99870.75;2064924;28;47456;-63
2022/09/14 02:39:30;;;;;;;;;6.50;5.75;;;;;24.39;63.83;99873.47;2069873;28;48012;-63
2022/09/14 02:40:36;;;;;;;;;5.75;4.50;;;;;24.37;63.94;99865.47;2069267;28;47828;-63
2022/09/14 02:41:58;;;;;;;;;4.50;4.50;;;;;24.38;64.36;99866.34;2070253;28;47589;-62
2022/09/14 02:43:19;;;;;;;;;6.25;6.25;;;;;24.39;64.38;99870.75;2070050;28;47729;-63
2022/09/14 02:44:26;;;;;;;;;7.50;7.50;;;;;24.38;64.36;99874.47;2069394;28;47827;-64
2022/09/14 02:46:04;;;;;;;;;10.25;7.50;;;;;24.37;64.38;99865.47;2068743;28;47764;-64
2022/09/14 02:47:36;;;;;;;;;6.00;6.00;;;;;24.36;64.16;99870.03;2068901;28;47746;-62
2022/09/14 02:48:48;;;;;;;;;9.00;7.50;;;;;24.35;64.19;99862.06;2051986;28;47858;-63
2022/09/14 02:50:02;;;;;;;;;7.00;7.00;;;;;24.35;64.07;99862.06;2053802;28;48069;-63
2022/09/14 02:51:17;;;;;;;;;7.60;5.80;;;;;24.33;64.16;99869.47;2041211;28;47413;-63
2022/09/14 02:52:33;;;;;;;;;5.75;5.75;;;;;24.33;64.38;99872.19;2044742;28;47537;-64
2022/09/14 02:53:44;;;;;;;;;8.00;7.00;;;;;24.32;64.60;99867.78;2054106;28;48061;-63
2022/09/14 02:54:52;;;;;;;;;5.75;5.75;;;;;24.31;64.24;99864.19;2046933;28;46773;-63
2022/09/14 02:55:59;;;;;;;;;5.80;5.80;;;;;24.30;64.32;99865.19;2047090;28;47996;-63
2022/09/14 02:57:01;;;;;;;;;9.75;8.00;;;;;24.29;64.30;99877.03;2051675;28;46579;-62
2022/09/14 02:58:10;;;;;;;;;8.50;8.50;;;;;24.28;64.60;99875.31;2055988;28;47451;-62
2022/09/14 02:59:11;;;;;;;;;1.00;1.00;;;;;24.27;64.28;99879.03;2052623;28;47429;-64
2022/09/14 03:00:12;;;;;;;;;7.25;5.50;;;;;24.26;64.20;99871.84;2053584;28;47512;-61
2022/09/14 03:01:15;;;;;;;;;6.00;6.00;;;;;24.26;64.41;99876.41;2035905;28;47637;-63
2022/09/14 03:02:16;;;;;;;;;5.25;5.25;;;;;24.26;64.53;99869.16;2037171;28;47590;-62
2022/09/14 03:03:19;;;;;;;;;7.00;6.00;;;;;24.24;64.36;99863.00;2052478;28;48260;-63
2022/09/14 03:04:19;;;;;;;;;4.25;4.25;;;;;24.26;64.33;99865.56;2053552;28;48176;-63
2022/09/14 03:05:19;;;;;;;;;6.67;6.67;;;;;24.26;64.58;99866.44;2053960;28;47397;-63
2022/09/14 03:06:20;;;;;;;;;6.67;6.67;;;;;24.26;64.52;99862.88;2052615;28;47614;-64
2022/09/14 03:07:21;;;;;;;;;6.00;6.00;;;;;24.25;64.87;99867.44;2053808;28;46596;-63
2022/09/14 03:08:22;;;;;;;;;6.67;6.67;;;;;24.25;64.63;99872.00;2053088;28;47072;-63
2022/09/14 03:09:22;;;;;;;;;6.75;6.75;;;;;24.25;64.43;99867.44;2065405;28;47276;-63
2022/09/14 03:10:23;;;;;;;;;7.00;7.00;;;;;24.25;64.92;99867.44;2077617;28;47981;-62
2022/09/14 03:11:23;;;;;;;;;7.67;6.00;;;;;24.27;64.96;99880.88;2086867;28;47510;-63
2022/09/14 03:12:23;;;;;;;;;6.00;6.00;;;;;24.27;65.01;99875.44;2085470;28;46479;-62
2022/09/14 03:13:24;;;;;;;;;5.00;5.00;;;;;24.27;64.34;99880.88;2082244;28;47027;-63
2022/09/14 03:14:24;;;;;;;;;5.67;5.67;;;;;24.26;64.51;99876.41;2079357;28;47437;-64
2022/09/14 03:15:26;;;;;;;;;7.00;7.00;;;;;24.28;64.85;99877.16;2082898;28;48089;-63
2022/09/14 03:16:26;;;;;;;;;6.25;6.25;;;;;24.27;64.76;99868.19;2082784;28;46647;-62
2022/09/14 03:17:27;;;;;;;;;6.67;5.33;;;;;24.28;64.34;99864.47;2082224;28;46806;-63
2022/09/14 03:18:27;;;;;;;;;8.00;5.33;;;;;24.28;64.77;99866.31;2084444;28;47861;-63
2022/09/14 03:19:27;;;;;;;;;9.00;6.00;;;;;24.28;64.58;99867.19;2069945;28;47608;-64
2022/09/14 03:20:31;;;;;;;;;7.00;6.00;;;;;24.30;64.28;99869.78;2069473;28;47286;-63
2022/09/14 03:21:32;;;;;;;;;8.00;6.50;;;;;24.29;64.41;99862.59;2086416;28;47436;-63
2022/09/14 03:22:32;;;;;;;;;5.50;5.50;;;;;24.28;64.42;99867.19;2075847;28;48127;-63
2022/09/14 03:23:37;;;;;;;;;7.67;6.00;;;;;24.28;64.64;99869.88;2075454;28;47814;-64
2022/09/14 03:24:37;;;;;;;;;7.00;7.00;;;;;24.29;64.29;99863.47;2085148;28;47992;-63
2022/09/14 03:25:43;;;;;;;;;6.33;5.67;;;;;24.29;64.29;99857.19;2080746;28;47994;-64
2022/09/14 03:26:44;;;;;;;;;6.00;5.50;;;;;24.29;64.24;99863.47;2097521;28;47333;-63
2022/09/14 03:27:49;;;;;;;;;6.75;6.75;;;;;24.31;64.21;99863.34;2102354;28;47566;-64
2022/09/14 03:28:51;;;;;;;;;7.75;6.25;;;;;24.31;64.24;99866.06;2103421;28;47950;-63
2022/09/14 03:29:52;;;;;;;;;5.50;5.00;;;;;24.30;64.15;99858.94;2103737;28;47897;-63
2022/09/14 03:30:52;;;;;;;;;6.00;6.00;;;;;24.30;64.13;99864.34;2084564;28;47201;-63
2022/09/14 03:31:53;;;;;;;;;5.00;5.00;;;;;24.29;64.04;99863.47;2078553;28;47695;-64
2022/09/14 03:32:53;;;;;;;;;7.67;7.67;;;;;24.29;64.58;99868.03;2096694;27;47177;-63
2022/09/14 03:33:56;;;;;;;;;5.33;5.33;;;;;24.29;64.41;99870.75;2104422;28;47788;-62
2022/09/14 03:34:56;;;;;;;;;5.50;5.50;;;;;24.29;64.47;99870.75;2101036;27;47700;-63
2022/09/14 03:35:57;;;;;;;;;4.33;4.33;;;;;24.27;64.51;99876.31;2096011;28;47339;-63
2022/09/14 03:36:57;;;;;;;;;5.00;5.00;;;;;24.27;64.52;99870.88;2100668;27;47893;-64
2022/09/14 03:37:58;;;;;;;;;5.33;5.33;;;;;24.25;64.76;99870.16;2102758;28;47444;-62
2022/09/14 03:39:00;;;;;;;;;5.50;5.50;;;;;24.26;64.82;99862.88;2101834;27;47894;-63
2022/09/14 03:40:01;;;;;;;;;6.75;6.00;;;;;24.25;64.59;99863.88;2103899;28;47657;-63
2022/09/14 03:41:09;;;;;;;;;5.67;5.67;;;;;24.26;64.35;99863.72;2093559;28;47183;-62
2022/09/14 03:42:09;;;;;;;;;5.00;5.00;;;;;24.25;64.73;99850.31;2095484;28;47762;-64
2022/09/14 03:43:11;;;;;;;;;7.00;6.67;;;;;24.25;64.54;99848.44;2099374;27;47203;-62
2022/09/14 03:44:11;;;;;;;;;6.00;6.00;;;;;24.25;64.22;99845.75;2103623;27;47257;-62
2022/09/14 03:45:13;;;;;;;;;6.00;5.67;;;;;24.25;64.61;99850.31;2099911;28;47524;-63
2022/09/14 03:46:17;;;;;;;;;6.75;6.00;;;;;24.26;64.42;99852.88;2097100;27;47474;-63
2022/09/14 03:47:17;;;;;;;;;5.50;5.50;;;;;24.25;64.15;99848.44;2099453;28;47551;-63
2022/09/14 03:48:18;;;;;;;;;5.33;5.33;;;;;24.24;64.19;99848.59;2100947;27;47661;-63
2022/09/14 03:49:18;;;;;;;;;7.00;7.00;;;;;24.24;64.13;99846.75;2103334;28;47544;-63
2022/09/14 03:50:19;;;;;;;;;9.33;9.33;;;;;24.22;64.42;99842.47;2100937;27;47162;-63
2022/09/14 03:51:19;;;;;;;;;6.00;6.00;;;;;24.20;64.30;99842.63;2100327;28;47324;-62
2022/09/14 03:52:20;;;;;;;;;6.67;6.33;;;;;24.20;64.57;99847.19;2084304;28;47859;-63
2022/09/14 03:53:20;;;;;;;;;5.00;5.00;;;;;24.18;64.33;99849.19;2085966;28;47727;-64
2022/09/14 03:54:20;;;;;;;;;7.00;6.67;;;;;24.17;64.17;99852.88;2093405;28;47403;-62
2022/09/14 03:55:21;;;;;;;;;5.33;5.00;;;;;24.16;64.54;99848.47;2091760;28;47805;-63
2022/09/14 03:56:22;;;;;;;;;7.33;7.00;;;;;24.17;64.47;99850.19;2100733;27;47252;-63
2022/09/14 03:57:23;;;;;;;;;6.25;5.50;;;;;24.16;64.49;99846.63;2103203;28;48036;-63
2022/09/14 03:58:24;;;;;;;;;7.67;7.67;;;;;24.16;64.61;99852.03;2094030;28;47102;-63
2022/09/14 03:59:24;;;;;;;;;9.25;6.75;;;;;24.16;64.20;99860.16;2097346;28;47540;-63
2022/09/14 04:00:24;;;;;;;;;5.67;5.67;;;;;24.17;64.74;99861.03;2103205;28;47048;-62
2022/09/14 04:01:25;;;;;;;;;5.33;5.33;;;;;24.16;64.55;99862.03;2102985;28;48052;-63
2022/09/14 04:02:27;;;;;;;;;7.67;6.00;;;;;24.14;64.48;99864.88;2103378;28;47411;-61
2022/09/14 04:03:27;;;;;;;;;7.00;7.00;;;;;24.15;64.60;99863.88;2103697;28;47614;-63
2022/09/14 04:04:28;;;;;;;;;7.00;7.00;;;;;24.15;64.28;99863.03;2102791;27;47868;-63
2022/09/14 04:05:28;;;;;;;;;4.00;4.00;;;;;24.14;64.50;99867.59;2101305;28;45967;-63
2022/09/14 04:06:28;;;;;;;;;5.33;5.33;;;;;24.14;64.25;99873.00;2102397;28;47647;-63
2022/09/14 04:07:29;;;;;;;;;4.67;4.67;;;;;24.13;64.37;99857.72;2100579;28;48191;-63
2022/09/14 04:08:31;;;;;;;;;4.33;4.33;;;;;24.12;64.22;99866.84;2102792;27;47304;-63
2022/09/14 04:09:32;;;;;;;;;6.00;6.00;;;;;24.11;64.52;99859.72;2101965;28;47533;-64
2022/09/14 04:10:33;;;;;;;;;5.75;5.00;;;;;24.11;64.28;99857.00;2102819;28;47337;-63
2022/09/14 04:11:33;;;;;;;;;3.67;3.67;;;;;24.10;64.53;99859.84;2101923;28;47441;-63
2022/09/14 04:12:35;;;;;;;;;6.00;6.00;;;;;24.11;64.45;99853.44;2102718;27;47863;-63
2022/09/14 04:13:37;;;;;;;;;5.25;5.25;;;;;24.10;64.52;99855.28;2101238;27;47774;-63
2022/09/14 04:14:37;;;;;;;;;6.50;6.50;;;;;24.10;64.87;99846.31;2093838;28;47521;-63
2022/09/14 04:15:37;;;;;;;;;5.33;4.33;;;;;24.08;64.56;99844.59;2095007;28;46714;-63
2022/09/14 04:16:39;;;;;;;;;5.67;5.67;;;;;24.09;64.15;99842.75;2102544;27;45566;-63
2022/09/14 04:17:39;;;;;;;;;6.50;5.75;;;;;24.08;64.45;99841.03;2102099;27;47640;-62
2022/09/14 04:18:39;;;;;;;;;6.00;6.00;;;;;24.09;64.46;99842.75;2088742;28;47551;-64
2022/09/14 04:19:40;;;;;;;;;4.67;4.67;;;;;24.08;64.63;99841.03;2093202;28;47000;-63
2022/09/14 04:20:41;;;;;;;;;6.50;6.50;;;;;24.08;64.15;99846.44;2084520;28;47180;-64
2022/09/14 04:21:41;;;;;;;;;6.33;6.00;;;;;24.08;64.68;99846.44;2085847;28;47911;-63
2022/09/14 04:22:42;;;;;;;;;6.33;5.33;;;;;24.08;64.89;99832.91;2102080;27;45788;-63
2022/09/14 04:23:42;;;;;;;;;6.00;6.00;;;;;24.09;64.44;99831.91;2093596;28;47651;-62
2022/09/14 04:24:42;;;;;;;;;6.33;6.33;;;;;24.10;64.52;99835.47;2093985;28;47642;-63
2022/09/14 04:25:43;;;;;;;;;5.00;5.00;;;;;24.08;64.49;99841.88;2102298;27;45461;-64
2022/09/14 04:26:44;;;;;;;;;4.33;4.33;;;;;24.08;64.39;99841.88;2102873;27;47452;-64
2022/09/14 04:27:45;;;;;;;;;6.00;6.00;;;;;24.08;64.38;99843.75;2103392;27;47275;-63
2022/09/14 04:28:45;;;;;;;;;6.00;6.00;;;;;24.06;64.42;99835.75;2103130;27;47814;-63
2022/09/14 04:29:48;;;;;;;;;5.33;5.33;;;;;24.05;64.47;99831.34;2103363;27;47986;-62
2022/09/14 04:31:01;;;;;;;;;4.50;4.00;;;;;24.05;64.36;99831.34;2100023;27;47344;-62
2022/09/14 04:32:01;;;;;;;;;5.25;5.25;;;;;24.05;64.69;99836.75;2089067;28;47854;-62
2022/09/14 04:33:02;;;;;;;;;6.00;6.00;;;;;24.06;63.98;99833.03;2084007;28;47793;-64
2022/09/14 04:34:03;;;;;;;;;7.00;7.00;;;;;24.06;64.02;99830.34;2096321;28;47496;-63
2022/09/14 04:35:04;;;;;;;;;5.00;4.00;;;;;24.08;64.50;99838.31;2103743;27;47490;-63
2022/09/14 04:36:10;;;;;;;;;5.00;5.00;;;;;24.07;64.41;99840.16;2087380;28;47568;-63
2022/09/14 04:37:10;;;;;;;;;7.00;5.00;;;;;24.06;64.48;99833.03;2087722;28;47569;-63
2022/09/14 04:38:10;;;;;;;;;6.00;6.00;;;;;24.08;64.32;99827.47;2105502;27;47004;-63
2022/09/14 04:39:26;;;;;;;;;6.25;6.25;;;;;24.07;64.00;99815.78;2098348;28;46512;-62
2022/09/14 04:40:27;;;;;;;;;6.33;6.33;;;;;24.07;64.17;99810.34;2101272;27;47538;-63
2022/09/14 04:41:29;;;;;;;;;6.00;6.00;;;;;24.07;64.08;99815.78;2104576;27;47711;-63
2022/09/14 04:42:30;;;;;;;;;5.00;5.00;;;;;24.06;64.27;99815.91;2101039;27;47966;-63
2022/09/14 04:43:30;;;;;;;;;6.00;6.00;;;;;24.05;64.41;99822.34;2104916;27;48263;-63
2022/09/14 04:44:31;;;;;;;;;7.00;6.00;;;;;24.04;64.19;99824.19;2100960;28;47613;-62
2022/09/14 04:45:31;;;;;;;;;5.00;4.00;;;;;24.02;64.33;99819.91;2101736;27;47965;-63
2022/09/14 04:46:35;;;;;;;;;5.00;4.33;;;;;23.98;64.25;99819.31;2103675;27;47530;-63
2022/09/14 04:47:36;;;;;;;;;4.00;3.50;;;;;23.96;64.32;99818.63;2105011;28;47682;-63
2022/09/14 04:48:36;;;;;;;;;5.33;5.33;;;;;23.96;64.36;99828.59;2093299;28;47547;-63
2022/09/14 04:49:37;;;;;;;;;6.00;4.00;;;;;23.96;64.29;99831.31;2095942;28;48239;-63
2022/09/14 04:50:38;;;;;;;;;4.00;3.75;;;;;23.97;64.04;99836.59;2092178;28;45446;-64
2022/09/14 04:51:39;;;;;;;;;4.00;4.00;;;;;23.97;64.14;99838.44;2093482;28;47499;-63
2022/09/14 04:52:39;;;;;;;;;4.00;4.00;;;;;23.96;64.60;99834.88;2104017;28;47649;-61
2022/09/14 04:53:40;;;;;;;;;5.33;5.33;;;;;23.95;64.17;99830.44;2102385;27;48062;-63
2022/09/14 04:54:40;;;;;;;;;6.00;6.00;;;;;23.95;64.58;99830.44;2099112;27;46420;-63
2022/09/14 04:55:40;;;;;;;;;6.00;6.00;;;;;23.95;64.66;99835.03;2085020;28;47708;-63
2022/09/14 04:56:41;;;;;;;;;6.67;5.00;;;;;23.94;64.40;99827.88;2086254;28;47817;-63
2022/09/14 04:57:41;;;;;;;;;4.67;4.67;;;;;23.94;64.35;99827.88;2103952;27;47377;-63
2022/09/14 04:58:45;;;;;;;;;7.00;4.00;;;;;23.95;64.53;99833.16;2102722;27;47055;-64
2022/09/14 04:59:45;;;;;;;;;4.25;4.25;;;;;23.96;64.48;99832.16;2104857;27;47923;-62
2022/09/14 05:00:45;;;;;;;;;5.67;5.67;;;;;23.96;64.24;99825.88;2101786;27;48015;-63
2022/09/14 05:01:47;;;;;;;;;6.67;6.33;;;;;23.96;64.43;99832.16;2103942;27;46276;-63
2022/09/14 05:02:48;;;;;;;;;6.50;6.00;;;;;23.97;64.24;99828.47;2105077;27;47789;-63
2022/09/14 05:03:49;;;;;;;;;4.50;4.50;;;;;23.97;64.54;99823.03;2108236;27;47800;-63
2022/09/14 05:04:49;;;;;;;;;9.67;3.33;;;;;23.98;64.45;99822.03;2104874;27;46628;-63